Time;durP1;ratioP1;P1;durP2;ratioP2;P2;SDS_P1;SDS_P2;PMS_P1;PMS_P2;Temp;Humidity;BMP_temperature;BMP_pressure;BME280_temperature;BME280_humidity;BME280_pressure;Samples;Min_cycle;Max_cycle;Signal;HPM_P1;HPM_P2
2023/01/08 00:00:26;;;;;;;6.38;2.50;;;11.80;99.90;;;;;;5005827;28;20035;-71
2023/01/08 00:02:51;;;;;;;4.47;2.30;;;11.80;99.90;;;;;;4983457;28;20030;-71
2023/01/08 00:05:17;;;;;;;4.28;3.00;;;11.80;99.90;;;;;;5003400;28;20470;-71
2023/01/08 00:07:43;;;;;;;7.45;3.13;;;11.80;99.90;;;;;;5004058;28;20034;-70
2023/01/08 00:10:08;;;;;;;6.30;3.15;;;11.80;99.90;;;;;;5002315;28;20529;-71
2023/01/08 00:12:34;;;;;;;6.95;3.53;;;11.80;99.90;;;;;;5009381;28;20069;-71
2023/01/08 00:15:00;;;;;;;4.32;2.88;;;11.90;99.90;;;;;;5003265;28;20058;-71
2023/01/08 00:17:26;;;;;;;4.82;2.90;;;11.90;99.90;;;;;;5000655;28;20076;-70
2023/01/08 00:19:51;;;;;;;3.75;2.70;;;11.90;99.90;;;;;;4996200;28;20500;-71
2023/01/08 00:22:17;;;;;;;4.95;2.92;;;11.90;99.90;;;;;;4994754;28;20509;-71
2023/01/08 00:24:43;;;;;;;3.08;2.75;;;11.90;99.90;;;;;;5002163;28;20097;-71
2023/01/08 00:27:08;;;;;;;4.78;3.03;;;11.90;99.90;;;;;;5006101;28;20033;-71
2023/01/08 00:29:36;;;;;;;6.07;3.78;;;11.70;99.90;;;;;;5001762;28;20037;-71
2023/01/08 00:32:02;;;;;;;6.07;3.30;;;11.70;99.90;;;;;;5004607;28;20022;-71
2023/01/08 00:34:28;;;;;;;3.22;2.65;;;11.80;99.90;;;;;;5004221;28;20109;-71
2023/01/08 00:36:53;;;;;;;3.88;2.72;;;11.70;99.90;;;;;;5006337;28;20101;-70
2023/01/08 00:39:19;;;;;;;4.88;3.00;;;11.70;99.90;;;;;;4998890;28;20481;-71
2023/01/08 00:41:45;;;;;;;7.28;3.03;;;11.70;99.90;;;;;;5003548;28;20355;-71
2023/01/08 00:44:10;;;;;;;7.10;3.22;;;11.60;99.90;;;;;;5008350;28;20389;-71
2023/01/08 00:46:36;;;;;;;4.90;2.65;;;11.70;99.90;;;;;;4989804;28;20017;-71
2023/01/08 00:49:01;;;;;;;7.60;2.83;;;11.60;99.90;;;;;;5002185;28;20042;-71
2023/01/08 00:51:27;;;;;;;3.92;3.28;;;11.60;99.90;;;;;;5005340;28;20029;-71
2023/01/08 00:53:53;;;;;;;6.13;3.45;;;11.70;99.90;;;;;;4998948;28;20117;-71
2023/01/08 00:56:18;;;;;;;6.28;3.10;;;11.80;99.90;;;;;;5004379;28;20037;-71
2023/01/08 00:58:44;;;;;;;6.22;3.65;;;11.70;99.90;;;;;;5002288;28;20018;-71
2023/01/08 01:01:14;;;;;;;5.57;3.35;;;11.70;99.90;;;;;;5000360;28;20039;-70
2023/01/08 01:03:40;;;;;;;3.28;2.97;;;11.70;99.90;;;;;;5002353;28;20607;-71
2023/01/08 01:06:07;;;;;;;9.10;3.00;;;11.60;99.90;;;;;;5003531;28;20026;-71
2023/01/08 01:08:33;;;;;;;6.28;3.10;;;11.70;99.90;;;;;;5006922;28;20038;-71
2023/01/08 01:10:59;;;;;;;5.80;3.20;;;11.70;99.90;;;;;;5002626;28;20033;-70
2023/01/08 01:13:25;;;;;;;5.28;2.75;;;11.70;99.90;;;;;;5004497;28;20076;-71
2023/01/08 01:15:58;;;;;;;4.15;3.30;;;11.80;99.90;;;;;;5003543;28;20037;-71
2023/01/08 01:18:23;;;;;;;6.80;3.83;;;11.70;99.90;;;;;;5003403;28;20022;-70
2023/01/08 01:20:50;;;;;;;5.50;3.03;;;11.70;99.90;;;;;;5006416;28;20057;-71
2023/01/08 01:23:15;;;;;;;5.00;3.05;;;11.80;99.90;;;;;;5001541;28;20034;-70
2023/01/08 01:25:41;;;;;;;4.05;2.83;;;11.70;99.90;;;;;;4986082;28;20026;-70
2023/01/08 01:28:07;;;;;;;9.77;3.50;;;11.70;99.90;;;;;;5004759;28;20086;-72
2023/01/08 01:30:32;;;;;;;5.20;3.25;;;11.70;99.90;;;;;;5005985;28;20069;-71
2023/01/08 01:32:58;;;;;;;5.07;3.55;;;11.70;99.90;;;;;;5003121;28;20057;-71
2023/01/08 01:35:23;;;;;;;5.30;3.05;;;11.70;99.90;;;;;;5001840;28;20018;-71
2023/01/08 01:37:49;;;;;;;6.00;3.33;;;11.60;99.90;;;;;;5004990;28;20389;-70
2023/01/08 01:40:15;;;;;;;7.03;3.10;;;11.70;99.90;;;;;;5002367;28;20087;-70
2023/01/08 01:42:40;;;;;;;7.22;3.03;;;11.60;99.90;;;;;;5002697;28;20041;-71
2023/01/08 01:45:26;;;;;;;7.38;2.90;;;11.60;99.90;;;;;;5003906;28;20029;-70
2023/01/08 01:47:51;;;;;;;5.82;3.08;;;11.60;99.90;;;;;;5001130;28;20045;-72
2023/01/08 01:50:23;;;;;;;5.82;3.28;;;11.60;99.90;;;;;;5000452;28;20022;-71
2023/01/08 01:52:51;;;;;;;4.40;2.90;;;11.60;99.90;;;;;;5001635;28;20026;-70
2023/01/08 01:55:17;;;;;;;5.82;3.33;;;11.60;99.90;;;;;;5005924;28;20026;-71
2023/01/08 01:57:49;;;;;;;6.35;3.20;;;11.70;99.90;;;;;;5007217;28;20390;-71
2023/01/08 02:00:15;;;;;;;4.30;2.38;;;11.60;99.90;;;;;;4989348;28;20032;-70
2023/01/08 02:02:41;;;;;;;1.92;1.02;;;11.50;99.90;;;;;;4984599;28;20116;-70
2023/01/08 02:05:07;;;;;;;3.17;1.00;;;11.40;99.90;;;;;;5004916;28;20341;-70
2023/01/08 02:07:43;;;;;;;4.47;0.90;;;11.20;99.90;;;;;;5005622;28;20022;-70
2023/01/08 02:10:15;;;;;;;2.63;0.85;;;11.20;99.90;;;;;;4984037;28;20026;-69
2023/01/08 02:12:45;;;;;;;4.40;0.85;;;11.10;99.90;;;;;;5001608;28;20026;-70
2023/01/08 02:15:32;;;;;;;7.00;1.13;;;11.00;99.90;;;;;;4995378;28;20034;-69
2023/01/08 02:18:17;;;;;;;3.53;0.80;;;11.00;99.90;;;;;;5016540;28;20033;-70
2023/01/08 02:21:18;;;;;;;5.40;1.40;;;11.00;99.90;;;;;;4997628;28;20029;-70
2023/01/08 02:24:19;;;;;;;5.68;1.25;;;10.90;99.90;;;;;;5002737;28;20022;-70
2023/01/08 02:26:45;;;;;;;5.18;1.30;;;11.00;99.90;;;;;;4998071;28;20023;-71
2023/01/08 02:29:17;;;;;;;5.47;0.68;;;11.00;99.90;;;;;;4996001;28;20038;-71
2023/01/08 02:31:44;;;;;;;7.30;1.07;;;11.00;99.90;;;;;;5002321;28;20026;-71
2023/01/08 02:34:11;;;;;;;5.30;1.20;;;11.00;99.90;;;;;;4988381;28;20033;-71
2023/01/08 02:36:44;;;;;;;2.90;0.80;;;10.90;99.90;;;;;;4999434;28;20680;-71
2023/01/08 02:39:31;;;;;;;3.78;0.85;;;10.70;99.90;;;;;;5001014;28;20030;-70
2023/01/08 02:41:59;;;;;;;9.05;1.20;;;10.70;99.90;;;;;;4995936;28;20061;-71
2023/01/08 02:44:34;;;;;;;2.97;0.90;;;10.80;99.90;;;;;;4999619;28;20493;-71
2023/01/08 02:47:05;;;;;;;6.30;1.55;;;10.80;99.90;;;;;;4997620;28;20074;-71
2023/01/08 02:49:33;;;;;;;5.72;1.05;;;10.80;99.90;;;;;;5000079;28;20026;-71
2023/01/08 02:52:01;;;;;;;6.80;1.00;;;10.90;99.90;;;;;;4995210;28;20023;-71
2023/01/08 02:54:30;;;;;;;6.07;1.02;;;10.90;99.90;;;;;;4985972;28;20022;-70
2023/01/08 02:57:12;;;;;;;3.88;1.10;;;10.90;99.90;;;;;;4987168;28;20032;-70
2023/01/08 02:59:40;;;;;;;6.22;0.90;;;11.00;99.90;;;;;;4999748;28;20049;-70
2023/01/08 03:02:06;;;;;;;6.53;1.00;;;10.90;99.90;;;;;;5009454;28;20021;-71
2023/01/08 03:04:39;;;;;;;2.55;1.10;;;10.90;99.90;;;;;;5001558;28;20057;-72
2023/01/08 03:07:04;;;;;;;3.05;0.88;;;10.80;99.90;;;;;;4998667;28;20030;-71
2023/01/08 03:09:30;;;;;;;7.95;1.30;;;10.70;99.90;;;;;;5001424;28;20478;-71
2023/01/08 03:12:21;;;;;;;3.45;0.90;;;10.60;99.90;;;;;;4999828;28;20466;-71
2023/01/08 03:14:58;;;;;;;3.83;0.70;;;10.50;99.90;;;;;;4978848;28;20041;-71
2023/01/08 03:17:31;;;;;;;6.30;1.40;;;10.40;99.90;;;;;;5002759;28;20031;-71
2023/01/08 03:20:11;;;;;;;6.22;1.20;;;10.50;99.90;;;;;;5000831;28;20482;-70
2023/01/08 03:22:40;;;;;;;2.97;0.90;;;10.50;99.90;;;;;;4998583;28;20084;-71
2023/01/08 03:25:07;;;;;;;7.45;1.45;;;10.60;99.90;;;;;;5004550;28;20028;-71
2023/01/08 03:27:37;;;;;;;11.30;1.60;;;10.70;99.90;;;;;;5000199;28;20030;-71
2023/01/08 03:30:05;;;;;;;5.90;1.60;;;10.80;99.90;;;;;;5006352;28;20037;-72
2023/01/08 03:32:32;;;;;;;8.80;1.30;;;10.90;99.90;;;;;;5005746;28;20125;-73
2023/01/08 03:35:00;;;;;;;6.90;1.30;;;10.90;99.90;;;;;;5006254;28;20057;-72
2023/01/08 03:37:33;;;;;;;7.40;1.42;;;11.00;99.90;;;;;;5001561;28;20060;-73
2023/01/08 03:40:07;;;;;;;5.40;1.00;;;11.00;99.90;;;;;;5006513;28;20017;-72
2023/01/08 03:42:33;;;;;;;8.90;1.65;;;11.10;99.90;;;;;;4989145;28;20421;-73
2023/01/08 03:44:59;;;;;;;11.20;1.58;;;11.10;99.90;;;;;;5003309;28;20080;-73
2023/01/08 03:47:28;;;;;;;5.43;1.17;;;11.10;99.90;;;;;;5000146;28;20113;-73
2023/01/08 03:49:55;;;;;;;5.18;1.20;;;11.20;99.90;;;;;;5000861;28;20038;-73
2023/01/08 03:52:26;;;;;;;6.28;1.50;;;11.20;99.90;;;;;;5003414;28;20014;-73
2023/01/08 03:54:52;;;;;;;6.65;1.20;;;11.30;99.90;;;;;;4990334;28;20479;-73
2023/01/08 03:57:17;;;;;;;7.00;1.40;;;11.20;99.90;;;;;;5002558;28;20021;-73
2023/01/08 03:59:43;;;;;;;9.95;1.15;;;11.30;99.90;;;;;;5007066;28;20093;-73
2023/01/08 04:02:08;;;;;;;4.30;1.10;;;11.30;99.90;;;;;;5006589;28;20044;-73
2023/01/08 04:04:34;;;;;;;5.32;1.00;;;11.20;99.90;;;;;;5007580;28;20030;-73
2023/01/08 04:07:00;;;;;;;5.72;1.15;;;11.30;99.90;;;;;;4999259;28;20398;-73
2023/01/08 04:09:25;;;;;;;7.00;1.50;;;11.30;99.90;;;;;;5001836;28;20479;-73
2023/01/08 04:11:51;;;;;;;5.68;1.33;;;11.40;99.90;;;;;;4997397;28;20034;-73
2023/01/08 04:14:17;;;;;;;5.05;1.30;;;11.30;99.90;;;;;;4988967;28;20033;-73
2023/01/08 04:16:43;;;;;;;4.30;1.08;;;11.30;99.90;;;;;;5004633;28;20406;-73
2023/01/08 04:19:11;;;;;;;6.80;1.48;;;11.30;99.90;;;;;;5003427;28;20034;-72
2023/01/08 04:21:37;;;;;;;6.72;1.73;;;11.00;99.90;;;;;;5001222;28;20021;-72
2023/01/08 04:24:03;;;;;;;9.18;2.72;;;11.00;99.90;;;;;;5000310;28;20085;-72
2023/01/08 04:26:28;;;;;;;5.97;1.95;;;11.00;99.90;;;;;;4989994;28;20014;-71
2023/01/08 04:28:54;;;;;;;6.28;2.47;;;10.90;99.90;;;;;;5004345;28;20501;-71
2023/01/08 04:31:20;;;;;;;4.03;2.17;;;10.80;99.90;;;;;;5002588;28;20022;-71
2023/01/08 04:33:45;;;;;;;7.63;2.55;;;10.80;99.90;;;;;;5008041;28;20168;-71
2023/01/08 04:36:11;;;;;;;4.20;2.50;;;10.80;99.90;;;;;;4984451;28;20466;-71
2023/01/08 04:38:36;;;;;;;5.28;3.13;;;10.90;99.90;;;;;;5000639;28;20080;-71
2023/01/08 04:41:03;;;;;;;5.00;3.25;;;10.90;99.90;;;;;;5007201;28;20024;-72
2023/01/08 04:43:30;;;;;;;7.13;3.00;;;10.80;99.90;;;;;;5004731;28;20045;-72
2023/01/08 04:46:00;;;;;;;6.80;3.00;;;10.90;99.90;;;;;;5001572;28;20027;-72
2023/01/08 04:48:26;;;;;;;3.63;2.70;;;11.00;99.90;;;;;;4986741;28;20037;-72
2023/01/08 04:50:52;;;;;;;4.07;2.67;;;10.90;99.90;;;;;;5001585;28;20374;-72
2023/01/08 04:53:17;;;;;;;4.10;2.30;;;10.90;99.90;;;;;;5010545;28;20033;-72
2023/01/08 04:55:43;;;;;;;6.22;2.40;;;10.70;99.90;;;;;;5007929;28;20030;-73
2023/01/08 04:58:09;;;;;;;2.75;1.80;;;10.70;99.90;;;;;;5000002;28;20041;-73
2023/01/08 05:00:34;;;;;;;6.38;1.95;;;10.80;99.90;;;;;;4999256;28;20497;-73
2023/01/08 05:03:00;;;;;;;6.35;1.60;;;10.70;99.90;;;;;;5000659;28;20033;-73
2023/01/08 05:05:26;;;;;;;3.22;1.48;;;10.70;99.90;;;;;;5003123;28;20022;-74
2023/01/08 05:07:52;;;;;;;5.85;1.70;;;10.70;99.90;;;;;;5006581;28;20117;-73
2023/01/08 05:10:17;;;;;;;5.35;1.25;;;10.60;99.90;;;;;;5010988;28;20096;-73
2023/01/08 05:12:43;;;;;;;3.72;1.20;;;10.60;99.90;;;;;;5005028;28;20040;-72
2023/01/08 05:15:09;;;;;;;4.57;1.30;;;10.60;99.90;;;;;;5008385;28;20033;-73
2023/01/08 05:17:34;;;;;;;4.55;1.40;;;10.60;99.90;;;;;;4989319;28;20089;-73
2023/01/08 05:20:00;;;;;;;5.75;1.70;;;10.50;99.90;;;;;;5004887;28;20497;-70
2023/01/08 05:22:25;;;;;;;2.35;1.30;;;10.50;99.90;;;;;;4997581;28;20022;-70
2023/01/08 05:24:51;;;;;;;5.25;1.42;;;10.40;99.90;;;;;;5003500;28;20076;-70
2023/01/08 05:27:17;;;;;;;5.00;1.25;;;10.30;99.90;;;;;;5004039;28;20035;-71
2023/01/08 05:29:42;;;;;;;8.45;1.48;;;10.30;99.90;;;;;;5003194;28;20481;-70
2023/01/08 05:32:18;;;;;;;3.67;0.98;;;10.30;99.90;;;;;;4997647;28;20040;-71
2023/01/08 05:34:44;;;;;;;4.40;0.98;;;10.40;99.90;;;;;;4988877;28;20029;-70
2023/01/08 05:37:10;;;;;;;4.82;0.90;;;10.40;99.90;;;;;;5001320;28;20040;-70
2023/01/08 05:39:36;;;;;;;2.67;1.02;;;10.40;99.90;;;;;;5002092;28;20027;-71
2023/01/08 05:42:03;;;;;;;6.13;1.00;;;10.40;99.90;;;;;;4979010;28;20022;-71
2023/01/08 05:44:28;;;;;;;4.38;1.00;;;10.50;99.90;;;;;;5000444;28;20041;-71
2023/01/08 05:46:54;;;;;;;4.63;0.85;;;10.40;99.90;;;;;;4988183;28;20038;-72
2023/01/08 05:49:23;;;;;;;6.13;1.25;;;10.30;99.90;;;;;;4989188;28;20457;-72
2023/01/08 05:51:49;;;;;;;5.90;1.08;;;10.20;99.90;;;;;;5005493;28;20054;-73
2023/01/08 05:54:15;;;;;;;5.13;0.80;;;10.30;99.90;;;;;;5000647;28;20022;-72
2023/01/08 05:56:42;;;;;;;5.68;1.23;;;10.10;99.90;;;;;;5019960;28;20021;-72
2023/01/08 05:59:10;;;;;;;5.68;0.88;;;10.20;99.90;;;;;;5001185;28;20482;-72
2023/01/08 06:01:36;;;;;;;2.55;0.60;;;10.10;99.90;;;;;;4992131;28;20366;-72
2023/01/08 06:04:02;;;;;;;5.07;1.17;;;10.00;99.90;;;;;;5000867;28;20038;-73
2023/01/08 06:06:28;;;;;;;3.40;0.65;;;10.10;99.90;;;;;;5003533;28;20041;-72
2023/01/08 06:08:54;;;;;;;5.70;0.95;;;10.00;99.90;;;;;;4986756;28;20478;-72
2023/01/08 06:11:19;;;;;;;4.13;0.73;;;10.00;99.90;;;;;;4991410;28;20160;-73
2023/01/08 06:13:45;;;;;;;2.58;0.80;;;9.90;99.90;;;;;;4991742;28;20484;-74
2023/01/08 06:16:11;;;;;;;7.88;0.75;;;9.90;99.90;;;;;;5007944;28;20061;-72
2023/01/08 06:18:37;;;;;;;4.78;1.40;;;9.80;99.90;;;;;;4992707;28;20018;-72
2023/01/08 06:21:04;;;;;;;5.88;0.88;;;9.80;99.90;;;;;;5008360;28;20029;-72
2023/01/08 06:23:30;;;;;;;3.58;0.90;;;9.80;99.90;;;;;;4999815;28;20136;-72
2023/01/08 06:25:59;;;;;;;7.15;1.10;;;9.80;99.90;;;;;;5000121;28;20424;-72
2023/01/08 06:28:25;;;;;;;6.50;1.23;;;9.70;99.90;;;;;;5002110;28;20076;-72
2023/01/08 06:30:51;;;;;;;5.45;1.00;;;9.70;99.90;;;;;;4987684;28;20070;-72
2023/01/08 06:33:17;;;;;;;6.45;1.10;;;9.60;99.90;;;;;;5003503;28;20026;-72
2023/01/08 06:35:43;;;;;;;9.50;1.30;;;9.70;99.90;;;;;;5001662;28;20029;-72
2023/01/08 06:38:09;;;;;;;5.20;1.60;;;9.70;99.90;;;;;;5000093;28;20042;-72
2023/01/08 06:40:34;;;;;;;5.05;1.17;;;9.70;99.90;;;;;;5001115;28;20469;-72
2023/01/08 06:43:04;;;;;;;7.05;1.25;;;9.60;99.90;;;;;;5006176;28;20053;-72
2023/01/08 06:45:30;;;;;;;6.18;0.85;;;9.50;99.90;;;;;;5003337;28;20018;-72
2023/01/08 06:48:03;;;;;;;6.75;1.25;;;9.50;99.90;;;;;;5003591;28;20053;-72
2023/01/08 06:50:29;;;;;;;4.90;1.05;;;9.50;99.90;;;;;;5008490;28;20081;-72
2023/01/08 06:52:55;;;;;;;6.85;1.08;;;9.50;99.90;;;;;;5004192;28;20541;-72
2023/01/08 06:55:22;;;;;;;8.50;0.98;;;9.40;99.90;;;;;;4990059;28;20037;-72
2023/01/08 06:57:51;;;;;;;5.13;1.05;;;9.40;99.90;;;;;;5005228;28;20018;-72
2023/01/08 07:00:17;;;;;;;7.95;0.98;;;9.40;99.90;;;;;;4997300;28;20033;-72
2023/01/08 07:02:43;;;;;;;5.80;1.25;;;9.30;99.90;;;;;;5002469;28;20025;-72
2023/01/08 07:05:08;;;;;;;5.00;0.93;;;9.30;99.90;;;;;;5001157;28;20038;-72
2023/01/08 07:07:35;;;;;;;6.63;0.90;;;9.30;99.90;;;;;;5005118;28;20034;-72
2023/01/08 07:10:00;;;;;;;8.02;1.17;;;9.30;99.90;;;;;;4987325;28;20056;-72
2023/01/08 07:12:26;;;;;;;3.75;0.75;;;9.30;99.90;;;;;;5007470;28;20064;-72
2023/01/08 07:14:52;;;;;;;2.85;1.10;;;9.20;99.90;;;;;;5003737;28;20105;-72
2023/01/08 07:17:17;;;;;;;8.38;1.23;;;9.30;99.90;;;;;;5003999;28;20026;-72
2023/01/08 07:19:43;;;;;;;6.75;1.23;;;9.30;99.90;;;;;;4990487;28;20470;-72
2023/01/08 07:22:08;;;;;;;11.80;1.52;;;9.30;99.90;;;;;;5007432;28;20033;-72
2023/01/08 07:24:34;;;;;;;10.88;1.40;;;9.30;99.90;;;;;;5006904;28;20018;-72
2023/01/08 07:26:59;;;;;;;10.77;1.17;;;9.40;99.90;;;;;;5008672;28;20041;-72
2023/01/08 07:29:26;;;;;;;8.35;1.40;;;9.20;99.90;;;;;;5002359;28;20385;-71
2023/01/08 07:31:52;;;;;;;7.90;1.17;;;9.20;99.90;;;;;;4988741;28;20029;-72
2023/01/08 07:34:18;;;;;;;7.70;1.10;;;9.10;99.90;;;;;;5004937;28;20030;-72
2023/01/08 07:36:44;;;;;;;5.60;0.98;;;9.10;99.90;;;;;;5003118;28;20022;-72
2023/01/08 07:39:09;;;;;;;12.23;1.73;;;9.10;99.90;;;;;;4998732;28;20721;-72
2023/01/08 07:41:35;;;;;;;5.60;1.20;;;9.10;99.90;;;;;;5003147;28;20034;-72
2023/01/08 07:44:01;;;;;;;9.57;1.10;;;9.10;99.90;;;;;;5005665;28;20405;-72
2023/01/08 07:46:26;;;;;;;6.15;1.40;;;9.10;99.90;;;;;;5013024;28;20549;-72
2023/01/08 07:48:52;;;;;;;8.32;1.60;;;9.00;99.90;;;;;;5010677;28;20037;-72
2023/01/08 07:51:17;;;;;;;9.73;1.70;;;9.00;99.90;;;;;;5012399;28;20022;-73
2023/01/08 07:53:43;;;;;;;6.05;1.38;;;9.00;99.90;;;;;;5004592;28;20541;-72
2023/01/08 07:56:09;;;;;;;11.73;2.00;;;9.00;99.90;;;;;;5010919;28;20100;-72
2023/01/08 07:58:36;;;;;;;6.80;1.15;;;9.00;99.90;;;;;;5010525;28;20466;-72
2023/01/08 08:01:02;;;;;;;7.25;1.50;;;9.00;99.90;;;;;;5009988;28;20026;-72
2023/01/08 08:03:28;;;;;;;9.45;1.80;;;9.00;99.90;;;;;;5001217;28;20470;-72
2023/01/08 08:05:54;;;;;;;10.82;1.80;;;9.10;99.90;;;;;;5003358;28;20081;-72
2023/01/08 08:08:19;;;;;;;7.50;1.67;;;9.10;99.90;;;;;;5006080;28;20477;-72
2023/01/08 08:10:45;;;;;;;6.18;1.38;;;9.00;99.90;;;;;;5003201;28;20105;-72
2023/01/08 08:13:11;;;;;;;10.18;1.63;;;9.10;99.90;;;;;;5009942;28;20026;-71
2023/01/08 08:15:38;;;;;;;11.77;1.85;;;9.10;99.90;;;;;;5010228;28;20105;-72
2023/01/08 08:18:04;;;;;;;10.68;1.70;;;9.10;99.90;;;;;;5005929;28;20030;-72
2023/01/08 08:20:30;;;;;;;7.50;1.55;;;9.10;99.90;;;;;;5010042;28;20041;-72
2023/01/08 08:23:04;;;;;;;8.10;1.38;;;9.10;99.90;;;;;;5006009;28;20037;-72
2023/01/08 08:25:30;;;;;;;10.23;1.48;;;9.10;99.90;;;;;;5004274;28;20378;-71
2023/01/08 08:27:57;;;;;;;11.48;2.13;;;9.10;99.90;;;;;;5010887;28;20029;-71
2023/01/08 08:30:23;;;;;;;6.03;1.92;;;9.10;99.90;;;;;;5008208;28;20117;-72
2023/01/08 08:32:49;;;;;;;9.23;1.70;;;9.10;99.90;;;;;;4994912;28;20522;-72
2023/01/08 08:35:15;;;;;;;6.65;1.80;;;9.10;99.90;;;;;;4990623;28;20040;-72
2023/01/08 08:37:40;;;;;;;14.27;1.50;;;9.00;99.90;;;;;;5006512;28;20030;-72
2023/01/08 08:40:07;;;;;;;8.63;2.13;;;9.00;99.90;;;;;;5004874;28;20030;-72
2023/01/08 08:42:32;;;;;;;8.52;1.73;;;9.10;99.90;;;;;;5004169;28;20018;-71
2023/01/08 08:44:58;;;;;;;13.93;3.15;;;9.10;99.90;;;;;;5008638;28;20033;-72
2023/01/08 08:47:24;;;;;;;8.18;3.13;;;9.10;99.90;;;;;;5001998;28;20032;-72
2023/01/08 08:49:49;;;;;;;10.07;2.30;;;9.20;99.90;;;;;;5000806;28;20156;-72
2023/01/08 08:52:15;;;;;;;13.95;2.40;;;9.10;99.90;;;;;;5006928;28;20034;-72
2023/01/08 08:54:40;;;;;;;9.00;2.45;;;9.10;99.90;;;;;;5006831;28;20603;-72
2023/01/08 08:57:08;;;;;;;9.40;1.52;;;9.10;99.90;;;;;;5001731;28;20010;-72
2023/01/08 08:59:34;;;;;;;5.38;1.45;;;9.10;99.90;;;;;;5009964;28;20026;-72
2023/01/08 09:01:59;;;;;;;10.90;1.90;;;9.20;99.90;;;;;;5007957;28;20381;-72
2023/01/08 09:04:28;;;;;;;9.13;1.98;;;9.20;99.90;;;;;;5004624;28;20105;-72
2023/01/08 09:06:53;;;;;;;9.05;1.50;;;9.30;99.90;;;;;;5004819;28;20098;-72
2023/01/08 09:09:19;;;;;;;10.38;1.73;;;9.30;99.90;;;;;;4987347;28;20050;-72
2023/01/08 09:11:44;;;;;;;11.27;1.38;;;9.30;99.90;;;;;;5002823;28;20033;-72
2023/01/08 09:14:10;;;;;;;5.60;1.75;;;9.30;99.90;;;;;;5003006;28;20030;-72
2023/01/08 09:16:36;;;;;;;7.90;2.13;;;9.30;99.90;;;;;;5006706;28;20111;-72
2023/01/08 09:19:02;;;;;;;9.80;2.00;;;9.30;99.90;;;;;;5000923;28;20029;-72
2023/01/08 09:21:28;;;;;;;10.90;2.17;;;9.30;99.90;;;;;;5003084;28;20100;-71
2023/01/08 09:23:53;;;;;;;4.68;1.63;;;9.30;99.90;;;;;;5007368;28;20058;-72
2023/01/08 09:26:19;;;;;;;6.00;1.83;;;9.40;99.90;;;;;;4990860;28;20473;-71
2023/01/08 09:28:44;;;;;;;10.25;1.70;;;9.40;99.90;;;;;;5008945;28;20041;-69
2023/01/08 09:31:10;;;;;;;6.68;1.90;;;9.40;99.90;;;;;;4998140;28;20593;-69
2023/01/08 09:33:36;;;;;;;8.70;2.05;;;9.40;99.90;;;;;;5005733;28;20045;-69
2023/01/08 09:36:01;;;;;;;10.75;2.00;;;9.40;99.90;;;;;;5002462;28;20034;-69
2023/01/08 09:38:27;;;;;;;6.53;1.67;;;9.40;99.90;;;;;;4988304;28;20029;-69
2023/01/08 09:41:00;;;;;;;11.82;2.30;;;9.50;99.90;;;;;;5003783;28;20053;-69
2023/01/08 09:43:29;;;;;;;6.63;1.80;;;9.50;99.90;;;;;;5003692;28;20049;-71
2023/01/08 09:45:59;;;;;;;9.00;2.00;;;9.50;99.90;;;;;;5005137;28;20049;-71
2023/01/08 09:48:28;;;;;;;6.38;1.58;;;9.60;99.90;;;;;;5000973;28;20034;-70
2023/01/08 09:50:54;;;;;;;8.48;1.90;;;9.50;99.90;;;;;;5007474;28;20370;-68
2023/01/08 09:53:20;;;;;;;5.78;1.63;;;9.60;99.90;;;;;;5002679;28;20026;-69
2023/01/08 09:55:57;;;;;;;8.45;1.83;;;9.60;99.90;;;;;;5005265;28;20157;-69
2023/01/08 09:58:35;;;;;;;6.53;1.60;;;9.60;99.90;;;;;;5002767;28;21110;-69
2023/01/08 10:01:01;;;;;;;8.30;1.73;;;9.70;99.90;;;;;;5000644;28;20044;-69
2023/01/08 10:03:38;;;;;;;6.78;1.70;;;9.70;99.90;;;;;;5002797;28;20053;-68
2023/01/08 10:06:09;;;;;;;6.10;1.83;;;9.80;99.90;;;;;;4989280;28;20518;-70
2023/01/08 10:08:35;;;;;;;13.02;1.75;;;9.80;99.90;;;;;;5007333;28;20121;-70
2023/01/08 10:11:01;;;;;;;3.53;1.67;;;9.80;99.90;;;;;;5008591;28;20109;-70
2023/01/08 10:13:26;;;;;;;3.47;1.40;;;9.80;99.90;;;;;;5004664;28;20030;-69
2023/01/08 10:15:52;;;;;;;3.70;1.50;;;9.70;99.90;;;;;;5003370;28;20037;-70
2023/01/08 10:18:21;;;;;;;5.63;1.17;;;9.90;99.90;;;;;;5005639;28;20026;-70
2023/01/08 10:20:46;;;;;;;4.32;1.10;;;9.80;99.90;;;;;;5005828;28;20026;-69
2023/01/08 10:23:15;;;;;;;5.78;1.55;;;9.80;99.90;;;;;;5010618;28;20469;-69
2023/01/08 10:25:54;;;;;;;4.25;1.15;;;9.90;99.90;;;;;;4985438;28;20061;-70
2023/01/08 10:28:28;;;;;;;3.53;1.27;;;9.80;99.90;;;;;;5002793;28;20545;-70
2023/01/08 10:31:02;;;;;;;3.47;0.95;;;9.80;99.90;;;;;;5008143;28;20029;-69
2023/01/08 10:33:42;;;;;;;3.05;0.95;;;9.70;99.90;;;;;;5001146;28;20525;-70
2023/01/08 10:36:14;;;;;;;2.40;0.90;;;9.80;99.90;;;;;;4997154;28;20018;-68
2023/01/08 10:38:51;;;;;;;3.47;0.65;;;9.90;99.90;;;;;;5013273;28;20096;-69
2023/01/08 10:41:17;;;;;;;2.80;0.57;;;10.00;99.90;;;;;;5010179;28;20033;-69
2023/01/08 10:43:57;;;;;;;3.92;0.60;;;10.10;99.90;;;;;;4996515;28;20029;-69
2023/01/08 10:46:31;;;;;;;5.05;1.25;;;10.10;99.90;;;;;;5007666;28;20037;-70
2023/01/08 10:48:59;;;;;;;3.15;1.13;;;10.20;99.90;;;;;;5005730;28;20076;-72
2023/01/08 10:51:26;;;;;;;3.10;1.15;;;10.10;99.90;;;;;;5010146;28;20034;-71
2023/01/08 10:53:54;;;;;;;2.53;0.90;;;10.10;99.90;;;;;;5010100;28;20032;-72
2023/01/08 10:56:27;;;;;;;3.45;1.55;;;10.20;99.90;;;;;;5019843;28;20022;-71
2023/01/08 10:58:53;;;;;;;3.15;1.38;;;10.30;99.90;;;;;;5003527;28;20049;-72
2023/01/08 11:01:30;;;;;;;1.10;0.88;;;10.20;99.90;;;;;;5009797;28;20052;-72
2023/01/08 11:04:05;;;;;;;1.92;1.23;;;10.10;99.90;;;;;;5004272;28;20116;-71
2023/01/08 11:06:33;;;;;;;3.22;1.20;;;10.10;99.90;;;;;;5007057;28;20026;-72
2023/01/08 11:09:24;;;;;;;2.33;0.93;;;10.10;99.90;;;;;;5008319;28;20193;-72
2023/01/08 11:11:50;;;;;;;3.60;1.23;;;10.20;99.90;;;;;;5004632;28;20069;-72
2023/01/08 11:14:34;;;;;;;2.00;1.23;;;10.10;99.90;;;;;;5003325;28;20062;-72
2023/01/08 11:17:07;;;;;;;2.88;1.42;;;10.20;99.90;;;;;;4998380;28;20093;-72
2023/01/08 11:19:33;;;;;;;4.03;0.85;;;10.20;99.90;;;;;;5003151;28;20029;-72
2023/01/08 11:22:00;;;;;;;1.80;0.90;;;10.20;99.90;;;;;;4990803;28;20036;-72
2023/01/08 11:24:37;;;;;;;2.70;1.27;;;10.20;99.90;;;;;;5002274;28;20021;-72
2023/01/08 11:27:17;;;;;;;2.70;1.30;;;10.20;99.90;;;;;;5006419;28;20053;-72
2023/01/08 11:30:11;;;;;;;3.45;1.40;;;10.20;99.90;;;;;;5003910;28;20030;-72
2023/01/08 11:32:56;;;;;;;2.88;1.10;;;10.20;99.90;;;;;;5008783;28;20034;-73
2023/01/08 11:35:36;;;;;;;5.13;1.10;;;10.20;99.90;;;;;;4989368;28;20120;-72
2023/01/08 11:38:02;;;;;;;5.22;1.85;;;10.30;99.90;;;;;;4989266;28;20053;-72
2023/01/08 11:40:42;;;;;;;3.67;0.93;;;10.30;99.90;;;;;;4999271;28;20027;-72
2023/01/08 11:43:31;;;;;;;3.17;1.20;;;10.30;99.90;;;;;;5022883;28;20466;-72
2023/01/08 11:46:18;;;;;;;3.28;1.33;;;10.30;99.90;;;;;;5006465;28;20116;-72
2023/01/08 11:48:55;;;;;;;4.28;1.67;;;10.30;99.90;;;;;;5004359;28;20034;-72
2023/01/08 11:51:23;;;;;;;3.22;1.58;;;10.40;99.90;;;;;;5002578;28;20023;-72
2023/01/08 11:53:58;;;;;;;4.57;1.33;;;10.40;99.90;;;;;;5008322;28;20450;-72
2023/01/08 11:56:33;;;;;;;4.72;1.20;;;10.40;99.90;;;;;;5007219;28;20026;-73
2023/01/08 11:59:20;;;;;;;6.40;1.45;;;10.40;99.90;;;;;;5005908;28;20025;-72
2023/01/08 12:02:12;;;;;;;5.45;1.33;;;10.40;99.90;;;;;;5007882;28;20041;-71
2023/01/08 12:05:00;;;;;;;4.35;1.23;;;10.50;99.90;;;;;;4988977;28;20033;-75
2023/01/08 12:07:46;;;;;;;2.38;1.23;;;10.60;99.90;;;;;;5002285;28;20014;-75
2023/01/08 12:10:30;;;;;;;3.72;1.30;;;10.50;99.90;;;;;;5013140;28;20052;-74
2023/01/08 12:12:56;;;;;;;3.70;0.90;;;10.50;99.90;;;;;;5011563;28;20030;-75
2023/01/08 12:15:30;;;;;;;3.53;0.90;;;10.60;99.90;;;;;;4984651;28;20038;-75
2023/01/08 12:18:05;;;;;;;5.72;1.58;;;10.50;99.90;;;;;;4995013;28;20033;-75
2023/01/08 12:20:46;;;;;;;3.80;1.20;;;10.50;99.90;;;;;;5006830;28;20104;-75
2023/01/08 12:23:44;;;;;;;4.40;1.40;;;10.60;99.90;;;;;;5002407;28;20373;-75
2023/01/08 12:26:19;;;;;;;5.15;1.40;;;10.50;99.90;;;;;;4982371;28;20042;-75
2023/01/08 12:29:23;;;;;;;3.17;1.27;;;10.60;99.90;;;;;;5001176;28;20033;-76
2023/01/08 12:32:11;;;;;;;3.17;1.38;;;10.70;99.90;;;;;;4984893;28;20037;-74
2023/01/08 12:34:51;;;;;;;4.95;1.00;;;10.70;99.90;;;;;;5004935;28;20033;-75
2023/01/08 12:37:30;;;;;;;2.47;1.00;;;10.70;99.90;;;;;;5009440;28;20052;-75
2023/01/08 12:40:06;;;;;;;5.72;1.60;;;10.80;99.90;;;;;;5007910;28;20394;-75
2023/01/08 12:42:36;;;;;;;2.15;1.00;;;10.90;99.90;;;;;;4999021;28;20470;-75
2023/01/08 12:45:06;;;;;;;4.45;1.40;;;10.90;99.90;;;;;;4987504;28;20494;-75
2023/01/08 12:47:35;;;;;;;3.92;1.27;;;10.90;99.90;;;;;;5007662;28;20026;-74
2023/01/08 12:50:30;;;;;;;5.22;1.48;;;11.00;99.90;;;;;;4999942;28;20141;-74
2023/01/08 12:53:16;;;;;;;6.68;1.30;;;11.10;99.90;;;;;;5007451;28;20030;-74
2023/01/08 12:55:59;;;;;;;5.88;1.55;;;11.00;99.90;;;;;;5003639;28;20022;-76
2023/01/08 12:58:32;;;;;;;3.28;1.00;;;11.00;99.90;;;;;;5007476;28;20033;-74
2023/01/08 13:01:27;;;;;;;6.60;1.23;;;11.00;99.90;;;;;;5007095;28;20489;-74